ΕΜΥ, Εθνική Μετεωρολογική Υπηρεσία - Δελτία Καιρού, Προγνώσεις

ΑΕΡΟΝΑΥΤΙΛΙΑ

GREEK AIRPORTS CODES

LGIK 270630Z AUTO 33009KT //// // ////// 17/08 Q1019 RE//=

EUROPEAN AIRPORTS CODES

LFPO 270630Z VRB03KT 2000 BR FEW001 07/07 Q1025 TEMPO 3000 BR=